Time;durP1;ratioP1;P1;durP2;ratioP2;P2;SDS_P1;SDS_P2;PMS_P1;PMS_P2;Temp;Humidity;BMP_temperature;BMP_pressure;BME280_temperature;BME280_humidity;BME280_pressure;Samples;Min_cycle;Max_cycle;Signal;HPM_P1;HPM_P2
2022/02/02 00:00:07;;;;;;;12.50;3.33;;;9.50;76.80;;;;;;5050904;28;20207;-89
2022/02/02 00:16:11;;;;;;;9.10;2.37;;;9.70;76.60;;;;;;5056799;28;20196;-85
2022/02/02 00:18:55;;;;;;;6.25;2.25;;;9.70;76.70;;;;;;5054851;28;20169;-87
2022/02/02 00:21:39;;;;;;;19.90;3.13;;;9.60;76.80;;;;;;5054795;28;20191;-87
2022/02/02 00:24:16;;;;;;;9.80;3.47;;;9.70;76.90;;;;;;5054417;28;20195;-87
2022/02/02 00:26:44;;;;;;;10.05;2.80;;;9.70;76.90;;;;;;5053946;28;20197;-88
2022/02/02 00:29:15;;;;;;;9.00;2.83;;;9.60;77.00;;;;;;5053934;28;20176;-88
2022/02/02 00:31:47;;;;;;;19.70;3.25;;;9.70;77.10;;;;;;5056596;28;20252;-88
2022/02/02 00:34:18;;;;;;;19.27;3.58;;;9.70;77.20;;;;;;5057706;28;20529;-87
2022/02/02 00:36:56;;;;;;;17.77;2.70;;;9.70;77.10;;;;;;5054756;28;20570;-87
2022/02/02 00:39:23;;;;;;;13.48;2.67;;;9.80;77.10;;;;;;5055333;28;20538;-87
2022/02/02 00:41:49;;;;;;;16.20;3.80;;;9.80;76.90;;;;;;5061686;28;20169;-88
2022/02/02 00:44:18;;;;;;;20.53;3.23;;;9.80;76.90;;;;;;5055310;28;20203;-88
2022/02/02 00:46:44;;;;;;;10.82;3.30;;;9.90;76.80;;;;;;5054722;28;20975;-88
2022/02/02 00:49:29;;;;;;;22.30;4.47;;;9.90;76.70;;;;;;5047105;28;20182;-89
2022/02/02 00:51:58;;;;;;;19.30;2.92;;;9.80;76.60;;;;;;5034976;28;20194;-88
2022/02/02 00:54:27;;;;;;;9.82;3.05;;;9.80;76.70;;;;;;5037064;28;20178;-88
2022/02/02 00:56:53;;;;;;;13.75;3.08;;;9.90;77.00;;;;;;5037565;28;20177;-89
2022/02/02 00:59:19;;;;;;;8.63;2.83;;;9.90;76.80;;;;;;5050843;28;20177;-87
2022/02/02 01:01:45;;;;;;;26.50;4.30;;;9.90;76.90;;;;;;5052392;28;20448;-87
2022/02/02 01:04:11;;;;;;;8.75;3.30;;;9.90;77.00;;;;;;5052306;28;20186;-88
2022/02/02 01:06:43;;;;;;;21.83;6.05;;;9.90;77.10;;;;;;5035745;28;20196;-88
2022/02/02 01:15:32;;;;;;;8.20;2.45;;;9.80;77.00;;;;;;5034648;28;20240;-88
2022/02/02 01:17:59;;;;;;;12.00;2.97;;;9.90;77.00;;;;;;5038977;28;20208;-89
2022/02/02 01:20:02;;;;;;;16.88;4.03;;;9.80;76.90;;;;;;5040409;28;20252;-88
2022/02/02 01:27:56;;;;;;;17.65;2.75;;;10.00;76.50;;;;;;5063080;28;20200;-88
2022/02/02 01:30:23;;;;;;;9.27;3.07;;;10.00;76.50;;;;;;5061802;28;20181;-89
2022/02/02 01:32:51;;;;;;;9.73;3.42;;;9.90;76.50;;;;;;5058659;28;20446;-88
2022/02/02 01:35:17;;;;;;;16.35;3.22;;;9.90;76.30;;;;;;5055369;28;20204;-88
2022/02/02 01:37:46;;;;;;;15.20;3.10;;;9.90;76.40;;;;;;5058885;28;20169;-87
2022/02/02 01:40:32;;;;;;;14.48;4.55;;;9.90;76.50;;;;;;5058988;28;20181;-87
2022/02/02 01:46:21;;;;;;;10.30;2.90;;;10.10;76.70;;;;;;5058376;28;20156;-87
2022/02/02 01:49:17;;;;;;;10.65;3.53;;;10.10;76.50;;;;;;5056379;28;20621;-84
2022/02/02 01:57:24;;;;;;;12.32;3.03;;;10.00;77.20;;;;;;5055368;28;20179;-87
2022/02/02 01:59:50;;;;;;;12.20;3.63;;;10.00;77.20;;;;;;5071951;28;20169;-90
2022/02/02 02:02:16;;;;;;;16.63;4.32;;;10.00;77.40;;;;;;5071061;28;20197;-88
2022/02/02 02:05:16;;;;;;;13.60;3.03;;;9.90;77.50;;;;;;5056832;28;20644;-88
2022/02/02 02:07:42;;;;;;;10.15;2.60;;;9.90;77.70;;;;;;5056430;28;20306;-88
2022/02/02 02:10:08;;;;;;;10.98;2.40;;;9.90;77.80;;;;;;5057775;28;20177;-88
2022/02/02 02:12:44;;;;;;;11.90;3.00;;;9.80;77.80;;;;;;5057130;28;20201;-88
2022/02/02 02:15:12;;;;;;;9.38;2.80;;;9.80;77.90;;;;;;5057142;28;20439;-88
2022/02/02 02:17:38;;;;;;;21.13;3.92;;;9.90;78.00;;;;;;5056339;28;20199;-88
2022/02/02 02:20:04;;;;;;;13.43;3.30;;;10.00;77.90;;;;;;5056833;28;20241;-87
2022/02/02 02:22:35;;;;;;;12.48;2.75;;;9.90;77.90;;;;;;5056647;28;20439;-88
2022/02/02 02:25:00;;;;;;;8.45;3.50;;;9.90;77.80;;;;;;5056251;28;20169;-88
2022/02/02 02:27:33;;;;;;;22.73;3.40;;;9.80;77.80;;;;;;5056639;28;20584;-88
2022/02/02 02:55:48;;;;;;;6.43;2.30;;;9.90;78.10;;;;;;5057572;28;20191;-88
2022/02/02 02:56:59;;;;;;;13.23;2.67;;;9.70;79.20;;;;;;5051512;28;20774;-88
2022/02/02 02:59:41;;;;;;;9.93;2.97;;;9.80;79.20;;;;;;5054080;28;20180;-87
2022/02/02 03:51:23;;;;;;;12.07;2.60;;;9.70;77.70;;;;;;5064395;28;20168;-88
2022/02/02 03:59:36;;;;;;;13.70;2.83;;;9.70;77.60;;;;;;5052996;28;20276;-87
2022/02/02 04:09:22;;;;;;;15.03;6.10;;;9.60;77.80;;;;;;5050062;28;20184;-88
2022/02/02 04:12:09;;;;;;;14.53;3.30;;;9.60;77.80;;;;;;5045151;28;20181;-88
2022/02/02 04:58:14;;;;;;;6.82;2.88;;;9.90;79.00;;;;;;5035067;28;20159;-88
2022/02/02 05:16:31;;;;;;;9.93;2.25;;;10.00;79.40;;;;;;5035002;28;20221;-88
2022/02/02 05:53:34;;;;;;;8.27;2.15;;;9.80;81.20;;;;;;5040313;28;20209;-90
2022/02/02 05:56:03;;;;;;;5.68;2.05;;;9.80;80.70;;;;;;5044395;28;20181;-89
2022/02/02 05:58:30;;;;;;;10.07;4.10;;;9.90;80.80;;;;;;5056235;28;20177;-90
2022/02/02 06:00:57;;;;;;;15.75;3.40;;;9.70;80.70;;;;;;5055592;28;20177;-90
2022/02/02 06:03:45;;;;;;;14.02;3.55;;;9.90;81.00;;;;;;5053699;28;20196;-91
2022/02/02 06:06:11;;;;;;;10.63;2.20;;;9.90;80.80;;;;;;5053468;28;20193;-90
2022/02/02 06:08:42;;;;;;;7.25;2.75;;;9.80;80.70;;;;;;5050631;28;20667;-90
2022/02/02 06:11:11;;;;;;;11.73;2.35;;;9.90;81.10;;;;;;5033865;28;20178;-90
2022/02/02 06:13:42;;;;;;;12.50;3.22;;;9.90;81.10;;;;;;5032402;28;20709;-90
2022/02/02 06:16:08;;;;;;;9.05;2.70;;;9.90;80.90;;;;;;5034772;28;20154;-90
2022/02/02 06:18:35;;;;;;;4.90;2.40;;;10.00;80.80;;;;;;5034886;28;20170;-90
2022/02/02 06:21:05;;;;;;;10.40;2.50;;;9.90;80.90;;;;;;5033600;28;20209;-90
2022/02/02 06:23:38;;;;;;;15.23;2.50;;;10.00;80.80;;;;;;5036277;28;20205;-90
2022/02/02 06:26:05;;;;;;;5.72;2.53;;;10.00;80.80;;;;;;5037999;28;20178;-90
2022/02/02 06:28:34;;;;;;;5.38;2.08;;;10.00;80.70;;;;;;5039621;28;20197;-90
2022/02/02 06:31:05;;;;;;;3.63;2.08;;;9.90;80.80;;;;;;5043589;28;20745;-90
2022/02/02 06:33:36;;;;;;;3.33;2.70;;;9.90;81.00;;;;;;5076389;28;20204;-90
2022/02/02 06:36:08;;;;;;;7.10;2.65;;;10.00;80.90;;;;;;5078630;28;20182;-90
2022/02/02 06:38:38;;;;;;;5.70;2.38;;;10.00;80.90;;;;;;5074134;28;20169;-90
2022/02/02 06:41:05;;;;;;;9.13;3.58;;;10.10;81.00;;;;;;5057179;28;20256;-89
2022/02/02 06:43:31;;;;;;;12.30;3.17;;;10.00;80.90;;;;;;5056469;28;20201;-90
2022/02/02 06:46:00;;;;;;;13.80;3.33;;;10.00;81.30;;;;;;5056194;28;20256;-89
2022/02/02 06:48:29;;;;;;;15.75;3.95;;;10.00;81.50;;;;;;5054494;28;20205;-90
2022/02/02 06:51:02;;;;;;;8.50;3.00;;;9.90;81.90;;;;;;5057275;28;20707;-88
2022/02/02 06:53:41;;;;;;;11.45;3.70;;;9.80;82.40;;;;;;5056972;28;20193;-91
2022/02/02 06:59:02;;;;;;;10.70;3.83;;;9.70;83.50;;;;;;5056403;28;20178;-90
2022/02/02 07:01:48;;;;;;;8.25;3.17;;;9.70;83.90;;;;;;5057413;28;20160;-90
2022/02/02 07:04:52;;;;;;;14.55;4.18;;;9.70;84.10;;;;;;5057050;28;20181;-90
2022/02/02 07:10:43;;;;;;;12.18;4.57;;;9.50;85.00;;;;;;5060053;28;20166;-90
2022/02/02 07:13:31;;;;;;;9.65;3.85;;;9.70;86.00;;;;;;5061059;28;20283;-91
2022/02/02 07:18:38;;;;;;;13.25;3.95;;;9.60;85.30;;;;;;5066513;28;20189;-90
2022/02/02 07:24:04;;;;;;;6.25;3.05;;;9.60;85.50;;;;;;5046493;28;20200;-90
2022/02/02 07:34:29;;;;;;;14.57;3.75;;;9.70;85.40;;;;;;5043971;28;20254;-90
2022/02/02 07:37:00;;;;;;;15.95;4.00;;;9.70;85.30;;;;;;5064651;28;20161;-91
2022/02/02 07:39:27;;;;;;;10.95;2.92;;;9.60;85.10;;;;;;5072666;28;20157;-90
2022/02/02 07:42:01;;;;;;;6.55;3.13;;;9.60;85.20;;;;;;5059739;28;20284;-91
2022/02/02 07:44:31;;;;;;;9.13;2.58;;;9.70;85.30;;;;;;5056941;28;20169;-90
2022/02/02 07:47:00;;;;;;;12.23;3.03;;;9.60;85.20;;;;;;5059709;28;20667;-90
2022/02/02 07:49:33;;;;;;;17.65;3.20;;;9.60;85.30;;;;;;5061599;28;20197;-91
2022/02/02 07:51:59;;;;;;;11.88;3.05;;;9.60;85.40;;;;;;5042544;28;20689;-91
2022/02/02 07:54:32;;;;;;;9.43;2.70;;;9.60;85.40;;;;;;5051563;28;20181;-90
2022/02/02 07:56:58;;;;;;;11.45;3.35;;;9.60;85.40;;;;;;5039494;28;20920;-91
2022/02/02 08:02:08;;;;;;;10.73;3.58;;;9.80;84.90;;;;;;5035510;28;20207;-90
2022/02/02 08:04:49;;;;;;;15.57;4.23;;;9.80;84.70;;;;;;5034255;28;20276;-90
2022/02/02 08:07:22;;;;;;;9.45;2.95;;;9.80;84.60;;;;;;5040397;28;20973;-90
2022/02/02 08:09:58;;;;;;;17.42;3.85;;;9.70;84.70;;;;;;5054910;28;20540;-90
2022/02/02 08:12:30;;;;;;;10.63;3.53;;;9.70;84.70;;;;;;5054494;28;20541;-90
2022/02/02 08:14:57;;;;;;;14.25;3.80;;;9.70;84.80;;;;;;5054826;28;20213;-90
2022/02/02 08:17:23;;;;;;;7.10;3.75;;;9.80;84.80;;;;;;5043958;28;20232;-91
2022/02/02 08:19:52;;;;;;;17.33;4.20;;;10.00;84.70;;;;;;5035896;28;20701;-91
2022/02/02 08:22:18;;;;;;;16.67;4.13;;;10.00;84.50;;;;;;5049969;28;20472;-91
2022/02/02 08:24:44;;;;;;;13.77;3.72;;;10.10;84.20;;;;;;5050956;28;20192;-91
2022/02/02 08:27:10;;;;;;;6.87;2.73;;;10.00;83.80;;;;;;5053494;28;20196;-91
2022/02/02 08:29:36;;;;;;;12.25;2.55;;;10.00;83.80;;;;;;5054342;28;20909;-88
2022/02/02 08:32:04;;;;;;;10.00;2.93;;;10.00;83.80;;;;;;5054326;28;20231;-89
2022/02/02 08:34:29;;;;;;;14.73;2.80;;;10.10;83.80;;;;;;5054251;28;20499;-91
2022/02/02 08:36:56;;;;;;;8.87;2.73;;;10.10;83.70;;;;;;5051067;28;20184;-91
2022/02/02 08:39:49;;;;;;;13.77;4.15;;;10.20;83.50;;;;;;5034666;28;20173;-90
2022/02/02 08:42:15;;;;;;;6.75;2.63;;;10.20;83.40;;;;;;5038219;28;20198;-91
2022/02/02 08:45:10;;;;;;;11.23;3.40;;;10.40;83.20;;;;;;5039072;28;20166;-91
2022/02/02 08:47:35;;;;;;;12.48;3.58;;;10.70;83.00;;;;;;5043287;28;20203;-92
2022/02/02 08:50:04;;;;;;;17.17;4.07;;;10.70;82.40;;;;;;5041142;28;20220;-91
2022/02/02 08:52:46;;;;;;;9.85;3.10;;;10.70;82.20;;;;;;5050970;28;20679;-92
2022/02/02 08:55:13;;;;;;;5.53;2.55;;;10.80;82.00;;;;;;5052797;28;20225;-91
2022/02/02 09:00:14;;;;;;;16.13;2.95;;;10.90;81.40;;;;;;5035880;28;20178;-91
2022/02/02 09:02:53;;;;;;;23.63;3.33;;;10.80;81.40;;;;;;5034356;28;20578;-90
2022/02/02 09:05:25;;;;;;;8.38;2.83;;;10.70;81.50;;;;;;5034407;28;20186;-92
2022/02/02 09:07:51;;;;;;;10.00;3.05;;;10.80;81.70;;;;;;5035843;28;20206;-92
2022/02/02 09:20:03;;;;;;;17.33;3.25;;;10.60;81.60;;;;;;5034741;28;20182;-91
2022/02/02 09:24:21;;;;;;;10.48;2.72;;;10.80;81.70;;;;;;5039525;28;20169;-92
2022/02/02 09:34:46;;;;;;;8.75;2.30;;;10.60;81.60;;;;;;5055046;28;20259;-91
2022/02/02 09:37:12;;;;;;;7.43;3.00;;;10.50;81.60;;;;;;5053771;28;20192;-90
2022/02/02 09:39:44;;;;;;;7.57;2.10;;;10.50;81.70;;;;;;5038194;28;20642;-91
2022/02/02 09:42:13;;;;;;;12.60;2.95;;;10.60;81.70;;;;;;5034219;28;20201;-91
2022/02/02 09:44:42;;;;;;;9.95;2.70;;;10.70;81.80;;;;;;5035095;28;20177;-91
2022/02/02 09:49:47;;;;;;;4.72;2.25;;;10.50;81.90;;;;;;5037379;28;20181;-90
2022/02/02 09:52:17;;;;;;;11.88;2.85;;;10.70;82.20;;;;;;5037068;28;20200;-90
2022/02/02 09:55:02;;;;;;;12.73;2.92;;;10.80;82.10;;;;;;5040751;28;20188;-90
2022/02/02 10:06:13;;;;;;;7.75;2.85;;;11.60;80.10;;;;;;5039906;28;20227;-90
2022/02/02 10:12:40;;;;;;;10.93;3.08;;;11.70;78.80;;;;;;5048065;28;20238;-90
2022/02/02 10:14:24;;;;;;;6.88;2.13;;;11.60;78.50;;;;;;5072318;28;20177;-90
2022/02/02 10:16:50;;;;;;;15.20;4.70;;;11.50;78.70;;;;;;5073862;28;20245;-89
2022/02/02 10:19:21;;;;;;;12.23;2.15;;;11.30;79.30;;;;;;5066004;28;20176;-90
2022/02/02 10:21:48;;;;;;;11.73;3.33;;;11.40;79.80;;;;;;5061880;28;20166;-90
2022/02/02 10:24:14;;;;;;;9.70;2.40;;;11.20;80.10;;;;;;5051752;28;20186;-89
2022/02/02 10:26:49;;;;;;;8.45;1.73;;;11.10;80.80;;;;;;5056427;28;20186;-90
2022/02/02 10:29:16;;;;;;;13.23;3.85;;;11.10;81.40;;;;;;5046531;28;20241;-90
2022/02/02 10:31:49;;;;;;;11.98;2.40;;;11.10;81.70;;;;;;5040293;28;20644;-91
2022/02/02 10:34:20;;;;;;;7.47;2.45;;;11.10;82.10;;;;;;5036966;28;20173;-90
2022/02/02 10:37:06;;;;;;;9.23;3.15;;;11.20;82.20;;;;;;5053913;28;20194;-90
2022/02/02 10:39:48;;;;;;;3.35;1.90;;;11.00;82.80;;;;;;5038364;28;20708;-90
2022/02/02 10:42:32;;;;;;;9.50;3.10;;;11.00;83.60;;;;;;5037483;28;20201;-90
2022/02/02 10:45:14;;;;;;;4.38;1.88;;;10.90;84.10;;;;;;5047433;28;20166;-90
2022/02/02 10:47:42;;;;;;;13.05;3.95;;;10.90;84.70;;;;;;5057241;28;20213;-90
2022/02/02 10:50:47;;;;;;;3.35;2.17;;;10.80;84.90;;;;;;5057304;28;20177;-90
2022/02/02 11:06:37;;;;;;;6.43;2.78;;;10.70;86.30;;;;;;5042832;28;20264;-90
2022/02/02 11:09:14;;;;;;;5.47;2.53;;;10.60;86.40;;;;;;5060552;28;20204;-89
2022/02/02 11:11:45;;;;;;;8.23;3.10;;;10.60;86.40;;;;;;5039778;28;20176;-90
2022/02/02 11:14:43;;;;;;;11.25;3.70;;;10.60;86.40;;;;;;5037061;28;20178;-90
2022/02/02 11:17:30;;;;;;;8.02;2.72;;;10.70;86.60;;;;;;5045182;28;20201;-89
2022/02/02 11:20:01;;;;;;;7.88;3.33;;;10.80;86.40;;;;;;5042226;28;20208;-90
2022/02/02 11:22:32;;;;;;;12.85;4.43;;;11.00;86.30;;;;;;5040889;28;20232;-96
2022/02/02 11:25:04;;;;;;;8.45;3.17;;;10.90;86.20;;;;;;5044639;28;20642;-90
2022/02/02 11:27:49;;;;;;;7.13;4.05;;;10.90;86.30;;;;;;5036230;28;20244;-91
2022/02/02 11:30:23;;;;;;;10.15;3.47;;;10.90;86.40;;;;;;5036245;28;20552;-90
2022/02/02 11:32:58;;;;;;;8.07;3.83;;;10.80;86.30;;;;;;5036503;28;20701;-90
2022/02/02 11:35:41;;;;;;;8.05;3.00;;;10.90;86.50;;;;;;5037987;28;20176;-91
2022/02/02 11:38:18;;;;;;;11.18;3.80;;;11.10;86.80;;;;;;5023741;28;20181;-90
2022/02/02 11:43:52;;;;;;;9.95;4.13;;;10.80;87.30;;;;;;5052356;28;20197;-90
2022/02/02 11:46:48;;;;;;;8.10;3.40;;;11.00;87.70;;;;;;5044232;28;20260;-90
2022/02/02 11:49:21;;;;;;;5.45;2.88;;;10.90;88.20;;;;;;5041287;28;20210;-90
2022/02/02 11:51:54;;;;;;;11.98;3.53;;;11.00;88.50;;;;;;5055979;28;20187;-90
2022/02/02 11:54:40;;;;;;;8.63;3.75;;;10.90;88.70;;;;;;5056544;28;20184;-90
2022/02/02 11:57:16;;;;;;;8.23;4.32;;;11.00;88.90;;;;;;5059118;28;20227;-91
2022/02/02 12:02:27;;;;;;;6.45;3.60;;;10.90;89.20;;;;;;5049163;28;20245;-88
2022/02/02 12:07:53;;;;;;;12.25;4.22;;;11.00;89.40;;;;;;5052502;28;20213;-91
2022/02/02 12:10:56;;;;;;;12.43;5.95;;;10.90;89.40;;;;;;5061958;28;20197;-88
2022/02/02 12:36:00;;;;;;;11.52;3.63;;;10.70;89.10;;;;;;5042266;28;20173;-89
2022/02/02 12:57:57;;;;;;;11.43;5.80;;;10.90;88.00;;;;;;5036648;28;20552;-88
2022/02/02 13:00:35;;;;;;;9.43;5.40;;;10.90;87.70;;;;;;5035436;28;20216;-88
2022/02/02 13:03:02;;;;;;;12.40;5.55;;;10.80;87.70;;;;;;5034624;28;20285;-88
2022/02/02 13:05:28;;;;;;;6.15;5.20;;;10.80;87.50;;;;;;5046634;28;20173;-86
2022/02/02 13:07:56;;;;;;;16.23;5.30;;;10.80;87.50;;;;;;5057691;28;20220;-89
2022/02/02 13:10:26;;;;;;;10.32;6.05;;;11.00;87.70;;;;;;5060181;28;20222;-88
2022/02/02 13:13:32;;;;;;;13.30;6.47;;;11.10;87.80;;;;;;5074147;28;20238;-88
2022/02/02 13:16:04;;;;;;;13.70;6.10;;;11.00;87.10;;;;;;5063700;28;20231;-88
2022/02/02 13:26:08;;;;;;;12.10;7.03;;;10.90;87.00;;;;;;5052137;28;20181;-89
2022/02/02 13:28:53;;;;;;;10.55;5.72;;;11.00;87.00;;;;;;5056713;28;20276;-89
2022/02/02 13:31:40;;;;;;;11.77;6.15;;;10.70;86.70;;;;;;5047083;28;20173;-88
2022/02/02 13:34:17;;;;;;;12.07;5.70;;;10.60;87.00;;;;;;5048986;28;20176;-89
2022/02/02 13:42:31;;;;;;;12.93;6.30;;;10.50;87.60;;;;;;5058447;28;20173;-88
2022/02/02 13:48:05;;;;;;;21.63;9.02;;;10.40;88.20;;;;;;5049114;28;20197;-89
2022/02/02 14:33:21;;;;;;;9.32;5.28;;;11.10;88.40;;;;;;5051172;28;20212;-87
2022/02/02 14:35:50;;;;;;;13.35;5.05;;;11.00;88.40;;;;;;5054430;28;20181;-88
2022/02/02 14:38:18;;;;;;;16.55;5.93;;;11.10;88.60;;;;;;5039521;28;20669;-88
2022/02/02 14:43:15;;;;;;;9.98;3.75;;;11.20;88.50;;;;;;5066317;28;20209;-89
2022/02/02 14:45:50;;;;;;;4.43;3.67;;;11.10;88.50;;;;;;5058446;28;20174;-89
2022/02/02 14:48:28;;;;;;;5.85;3.60;;;11.20;88.60;;;;;;5057119;28;20239;-88
2022/02/02 14:53:34;;;;;;;4.57;3.70;;;11.20;88.30;;;;;;5048727;28;20263;-87
2022/02/02 15:31:42;;;;;;;17.20;7.93;;;11.20;89.30;;;;;;5058523;28;20173;-87
2022/02/02 15:34:13;;;;;;;10.88;7.65;;;11.10;89.20;;;;;;5058217;28;20424;-88
2022/02/02 15:39:24;;;;;;;13.18;9.52;;;11.30;89.20;;;;;;5039960;28;20158;-87
2022/02/02 16:03:10;;;;;;;15.98;8.70;;;11.00;89.20;;;;;;5040205;28;20220;-87
2022/02/02 16:05:47;;;;;;;14.27;8.07;;;11.00;89.20;;;;;;5049604;28;20245;-87
2022/02/02 16:08:16;;;;;;;20.33;9.65;;;11.00;89.30;;;;;;5061402;28;20232;-87
2022/02/02 16:15:59;;;;;;;17.77;10.35;;;11.20;89.30;;;;;;5044748;28;20177;-87
2022/02/02 16:37:04;;;;;;;32.60;16.30;;;11.20;89.90;;;;;;5037946;28;20181;-88
2022/02/02 16:39:33;;;;;;;31.83;16.25;;;11.10;89.80;;;;;;5048196;28;20169;-87
2022/02/02 16:44:43;;;;;;;24.58;13.95;;;11.00;89.70;;;;;;5060455;28;20172;-88
2022/02/02 16:47:09;;;;;;;32.90;17.10;;;10.90;89.70;;;;;;5056208;28;20397;-89
2022/02/02 16:49:39;;;;;;;30.63;15.60;;;11.00;89.70;;;;;;5056534;28;20173;-89
2022/02/02 16:52:05;;;;;;;23.63;15.55;;;10.90;89.70;;;;;;5056557;28;20224;-87
2022/02/02 16:54:37;;;;;;;27.40;16.15;;;10.90;89.70;;;;;;5054757;28;20181;-88
2022/02/02 17:32:28;;;;;;;27.58;16.13;;;10.70;91.00;;;;;;5065001;28;20216;-89
2022/02/02 17:35:06;;;;;;;28.23;15.40;;;10.80;91.80;;;;;;5061634;28;20225;-87
2022/02/02 17:40:15;;;;;;;21.20;13.52;;;10.70;91.90;;;;;;5063509;28;20164;-88
2022/02/02 18:20:59;;;;;;;59.73;27.17;;;10.70;91.60;;;;;;5060756;28;20189;-88
2022/02/02 18:25:54;;;;;;;48.78;24.75;;;10.80;91.60;;;;;;5059479;28;20169;-87
2022/02/02 18:28:32;;;;;;;41.78;22.80;;;10.70;91.70;;;;;;5058175;28;20196;-87
2022/02/02 18:32:13;;;;;;;51.88;26.80;;;10.80;91.70;;;;;;5061024;28;20641;-85
2022/02/02 18:36:55;;;;;;;59.78;28.95;;;10.90;91.60;;;;;;5060758;28;20237;-86
2022/02/02 18:47:16;;;;;;;53.92;28.48;;;10.80;91.50;;;;;;5073599;28;20227;-87
2022/02/02 18:57:48;;;;;;;61.40;28.48;;;10.80;91.40;;;;;;5061402;28;20686;-87
2022/02/02 19:00:41;;;;;;;63.10;27.45;;;10.80;91.50;;;;;;5063443;28;20173;-87
2022/02/02 19:52:53;;;;;;;31.38;18.55;;;10.80;90.50;;;;;;5044734;28;20212;-85
2022/02/02 19:55:58;;;;;;;35.90;21.95;;;10.80;90.40;;;;;;5037674;28;20233;-85
2022/02/02 20:03:52;;;;;;;36.35;19.73;;;10.90;90.20;;;;;;5049596;28;20216;-86
2022/02/02 20:11:31;;;;;;;33.83;19.65;;;10.90;90.00;;;;;;5073746;28;20161;-87
2022/02/02 20:13:57;;;;;;;47.83;20.80;;;11.00;89.90;;;;;;5055762;28;20201;-86
2022/02/02 20:16:23;;;;;;;31.75;20.10;;;11.00;89.80;;;;;;5055751;28;20195;-87
2022/02/02 20:18:52;;;;;;;27.10;18.65;;;11.00;89.70;;;;;;5055802;28;20556;-86
2022/02/02 20:21:22;;;;;;;30.42;18.50;;;11.00;89.70;;;;;;5054590;28;20638;-86
2022/02/02 20:23:49;;;;;;;30.70;16.77;;;10.90;89.70;;;;;;5054482;28;20201;-85
2022/02/02 20:26:18;;;;;;;31.35;16.40;;;10.90;89.60;;;;;;5055811;28;20227;-85
2022/02/02 20:28:45;;;;;;;32.83;17.80;;;10.90;89.60;;;;;;5058244;28;20225;-86
2022/02/02 20:31:11;;;;;;;29.13;16.80;;;11.00;89.60;;;;;;5063360;28;20192;-86
2022/02/02 20:33:37;;;;;;;35.55;18.30;;;11.10;89.60;;;;;;5060513;28;20197;-86
2022/02/02 20:36:04;;;;;;;35.83;18.30;;;11.30;89.70;;;;;;5063691;28;20185;-86
2022/02/02 20:38:30;;;;;;;28.38;17.13;;;11.40;89.20;;;;;;5065660;28;20685;-87
2022/02/02 20:40:57;;;;;;;25.63;16.10;;;11.40;89.10;;;;;;5065883;28;20185;-86
2022/02/02 21:06:01;;;;;;;29.80;18.02;;;11.20;88.70;;;;;;5041495;28;20178;-86
2022/02/02 21:10:34;;;;;;;31.27;18.98;;;11.30;88.50;;;;;;5118777;27;20603;-87
2022/02/02 21:15:44;;;;;;;35.92;18.45;;;11.10;88.20;;;;;;5115843;28;20198;-87
2022/02/02 21:18:14;;;;;;;27.40;18.90;;;11.10;88.20;;;;;;5114286;28;20172;-88
2022/02/02 21:20:59;;;;;;;31.65;22.10;;;11.10;88.20;;;;;;5115900;28;20435;-90
2022/02/02 21:23:35;;;;;;;32.50;21.33;;;10.90;88.40;;;;;;5122731;28;20225;-88
2022/02/02 21:28:30;;;;;;;36.67;21.55;;;11.10;88.50;;;;;;5126114;28;20262;-88
2022/02/02 21:30:56;;;;;;;32.22;20.75;;;11.10;88.30;;;;;;5118727;28;20224;-88
2022/02/02 21:33:22;;;;;;;36.30;20.70;;;11.10;88.00;;;;;;5111916;28;20187;-87
2022/02/02 21:35:50;;;;;;;35.37;20.50;;;11.10;88.00;;;;;;5112100;28;20174;-87
2022/02/02 21:40:57;;;;;;;37.65;21.67;;;10.90;87.90;;;;;;5113386;28;20167;-87
2022/02/02 21:43:24;;;;;;;37.40;21.30;;;11.00;88.00;;;;;;5111692;28;20641;-87
2022/02/02 21:45:50;;;;;;;44.92;22.67;;;11.00;88.10;;;;;;5111086;28;20171;-87
2022/02/02 21:48:17;;;;;;;44.65;23.15;;;11.00;88.10;;;;;;5113114;28;20546;-88
2022/02/02 21:53:11;;;;;;;44.17;24.30;;;11.00;88.10;;;;;;5114764;28;20183;-88
2022/02/02 21:55:37;;;;;;;47.45;24.08;;;11.00;88.10;;;;;;5114972;28;20202;-87
2022/02/02 21:58:04;;;;;;;41.93;24.93;;;11.00;88.10;;;;;;5116470;28;20178;-87
2022/02/02 22:00:30;;;;;;;42.65;23.02;;;11.10;88.10;;;;;;5114709;28;20417;-87
2022/02/02 22:02:56;;;;;;;44.20;24.13;;;11.10;88.00;;;;;;5117670;28;20195;-87
2022/02/02 22:05:22;;;;;;;43.97;25.47;;;11.00;88.00;;;;;;5119168;28;20171;-87
2022/02/02 22:07:48;;;;;;;46.67;26.03;;;11.10;88.10;;;;;;5120145;28;20654;-88
2022/02/02 22:10:16;;;;;;;53.30;27.40;;;11.10;88.20;;;;;;5113501;28;20695;-87
2022/02/02 22:12:42;;;;;;;48.92;24.92;;;11.10;88.10;;;;;;5110632;28;20432;-87
2022/02/02 22:15:11;;;;;;;42.55;24.70;;;11.10;88.10;;;;;;5110939;28;20178;-88
2022/02/02 22:17:37;;;;;;;43.42;24.35;;;11.10;88.00;;;;;;5110199;28;20682;-87
2022/02/02 22:20:07;;;;;;;44.63;23.55;;;11.10;87.90;;;;;;5106238;28;20188;-88
2022/02/02 22:22:33;;;;;;;41.60;24.17;;;11.10;88.00;;;;;;5096409;28;20203;-87
2022/02/02 22:25:00;;;;;;;43.55;24.52;;;11.20;88.00;;;;;;5096160;28;20180;-88
2022/02/02 22:27:32;;;;;;;44.80;26.63;;;11.10;87.90;;;;;;5096730;28;20180;-88
2022/02/02 22:29:57;;;;;;;46.88;25.45;;;11.10;87.90;;;;;;5097252;28;20282;-88
2022/02/02 22:32:23;;;;;;;43.50;24.07;;;11.20;87.90;;;;;;5097897;28;20226;-87
2022/02/02 22:34:50;;;;;;;52.50;26.83;;;11.10;87.80;;;;;;5099536;28;20179;-87
2022/02/02 22:37:15;;;;;;;49.75;26.08;;;11.00;87.80;;;;;;5103868;28;20270;-88
2022/02/02 22:39:43;;;;;;;57.53;27.30;;;11.00;87.80;;;;;;5100848;28;20211;-88
2022/02/02 22:42:10;;;;;;;45.95;25.20;;;11.10;87.90;;;;;;5104936;28;20188;-88
2022/02/02 22:44:36;;;;;;;50.67;25.42;;;11.10;87.90;;;;;;5116785;28;20163;-90
2022/02/02 22:47:05;;;;;;;50.20;25.50;;;11.00;87.70;;;;;;5115151;28;20203;-87
2022/02/02 22:49:33;;;;;;;49.72;24.70;;;11.00;87.70;;;;;;5099029;28;20238;-88
2022/02/02 22:52:03;;;;;;;42.90;26.80;;;10.90;87.70;;;;;;5096981;28;20180;-88
2022/02/02 22:54:29;;;;;;;46.78;23.42;;;10.90;87.70;;;;;;5095321;28;20168;-87
2022/02/02 22:56:55;;;;;;;40.60;24.00;;;11.10;87.80;;;;;;5080999;28;20554;-88
2022/02/02 22:59:21;;;;;;;41.63;22.93;;;11.10;87.50;;;;;;5080773;28;20556;-89
2022/02/02 23:01:53;;;;;;;40.37;24.07;;;10.90;87.10;;;;;;5089717;28;20177;-87
2022/02/02 23:04:22;;;;;;;45.42;23.10;;;10.90;87.20;;;;;;5074965;28;20520;-87
2022/02/02 23:06:48;;;;;;;47.63;21.33;;;11.10;87.90;;;;;;5075237;28;20181;-88
2022/02/02 23:09:27;;;;;;;34.93;21.33;;;11.10;86.80;;;;;;5075293;28;20223;-88
2022/02/02 23:11:53;;;;;;;40.17;21.77;;;11.00;86.70;;;;;;5075208;28;20192;-88
2022/02/02 23:14:23;;;;;;;35.80;22.17;;;10.80;86.50;;;;;;5075059;28;20177;-88
2022/02/02 23:16:51;;;;;;;32.13;19.45;;;10.80;86.70;;;;;;5076679;28;20200;-88
2022/02/02 23:19:17;;;;;;;40.75;22.30;;;11.00;86.80;;;;;;5078071;28;20180;-88
2022/02/02 23:21:45;;;;;;;32.07;20.17;;;10.90;86.70;;;;;;5076261;28;20188;-88
2022/02/02 23:24:13;;;;;;;35.78;19.08;;;11.00;86.70;;;;;;5076649;28;20411;-88
2022/02/02 23:26:41;;;;;;;35.60;21.48;;;10.90;86.70;;;;;;5077583;28;20730;-89
2022/02/02 23:29:08;;;;;;;31.45;17.38;;;10.80;86.40;;;;;;5078228;28;20227;-88
2022/02/02 23:31:34;;;;;;;34.63;18.80;;;10.70;86.50;;;;;;5079233;28;20181;-89
2022/02/02 23:34:00;;;;;;;29.10;16.17;;;10.90;86.50;;;;;;5078670;28;20295;-88
2022/02/02 23:36:26;;;;;;;33.90;19.03;;;10.80;86.30;;;;;;5078634;28;20234;-88
2022/02/02 23:38:52;;;;;;;29.00;16.25;;;10.80;86.30;;;;;;5110867;28;20183;-88
2022/02/02 23:42:11;;;;;;;31.13;17.10;;;10.80;86.20;;;;;;5098840;28;20188;-89
2022/02/02 23:44:24;;;;;;;28.85;14.65;;;10.80;85.90;;;;;;5096609;28;20306;-88
2022/02/02 23:46:54;;;;;;;27.20;14.83;;;10.80;85.80;;;;;;5095349;28;20215;-88
2022/02/02 23:49:44;;;;;;;26.90;14.80;;;10.80;85.70;;;;;;5094555;28;20195;-88
2022/02/02 23:52:11;;;;;;;29.90;14.88;;;10.80;85.70;;;;;;5095158;28;20572;-89
2022/02/02 23:54:42;;;;;;;30.48;13.88;;;10.90;85.30;;;;;;5094896;28;20313;-88
2022/02/02 23:57:21;;;;;;;19.70;13.18;;;10.80;85.00;;;;;;5094987;28;20313;-88
